This is the latest recevied weather packets stored in our database for station/object IZ1UQG-N2. If no packets are shown the sender has not sent any weather packets the latest 10 day(s).
| Time | Temp. | Humidity | Pressure | Rain* | Wind** | Luminosity | Snow |
|---|---|---|---|---|---|---|---|
| 1777726201 | 20.56° C | 43% | 1020.4 hPa | 0 mm | - | 765 W/m² | - |
| 1777726143 | 20.56° C | 43% | 1020.4 hPa | 0 mm | - | 765 W/m² | - |
| 1777726084 | 20.56° C | 43% | 1020.5 hPa | 0 mm | - | 728 W/m² | - |
| 1777726023 | 20.56° C | 42% | 1020.5 hPa | 0 mm | - | 715 W/m² | - |
| 1777726021 | 20.56° C | 43% | 1020.6 hPa | 0 mm | - | 742 W/m² | - |
| 1777725975 | 20.56° C | 43% | 1020.6 hPa | 0 mm | - | 731 W/m² | - |
| 1777725963 | 20.56° C | 43% | 1020.6 hPa | 0 mm | - | 742 W/m² | - |
| 1777725914 | 20.56° C | 42% | 1020.5 hPa | 0 mm | - | 733 W/m² | - |
| 1777725903 | 20.56° C | 42% | 1020.5 hPa | 0 mm | - | 724 W/m² | - |
| 1777725843 | 20.56° C | 42% | 1020.6 hPa | 0 mm | - | 759 W/m² | - |
| 1777725843 | 20.56° C | 42% | 1020.6 hPa | 0 mm | - | 759 W/m² | - |
| 1777725784 | 20.56° C | 43% | 1020.6 hPa | 0 mm | - | 749 W/m² | - |
| 1777725724 | 20.56° C | 43% | 1020.6 hPa | 0 mm | - | 731 W/m² | - |
| 1777725663 | 20.56° C | 42% | 1020.5 hPa | 0 mm | - | 733 W/m² | - |
| 1777725663 | 20.56° C | 42% | 1020.5 hPa | 0 mm | - | 733 W/m² | - |
| 1777725605 | 20.56° C | 42% | 1020.5 hPa | 0 mm | - | 733 W/m² | - |
| 1777725554 | 21.67° C | 42% | 1020.7 hPa | 0 mm | - | 788 W/m² | - |
| 1777725545 | 20.56° C | 42% | 1020.6 hPa | 0 mm | - | 744 W/m² | - |
| 1777725484 | 21.11° C | 42% | 1020.6 hPa | 0 mm | - | 758 W/m² | - |
| 1777725482 | 21.11° C | 42% | 1020.6 hPa | 0 mm | - | 758 W/m² | - |
| 1777725423 | 21.11° C | 41% | 1020.6 hPa | 0 mm | - | 770 W/m² | - |
| 1777725374 | 21.11° C | 42% | 1020.7 hPa | 0 mm | - | 786 W/m² | - |
| 1777725363 | 21.11° C | 41% | 1020.6 hPa | 0 mm | - | 786 W/m² | - |
| 1777725303 | 21.67° C | 42% | 1020.7 hPa | 0 mm | - | 788 W/m² | - |
| 1777725301 | 21.11° C | 43% | 1020.7 hPa | 0 mm | - | 788 W/m² | - |
* Rain latest hour (hover to see other rain measurements)
** Current wind speed in m/s (hover to see current wind gust speed)